createdAt,value
2023-03-19T00:01:02.419Z,95158.3
2023-03-19T00:03:10.142Z,95159.4
2023-03-19T00:04:12.756Z,95160.7
2023-03-19T00:05:14.729Z,95159.2
2023-03-19T00:06:17.211Z,95157.3
2023-03-19T00:07:19.717Z,95159
2023-03-19T00:08:21.955Z,95152.1
2023-03-19T00:09:24.541Z,95156.2
2023-03-19T00:10:27.108Z,95153.1
2023-03-19T00:11:29.347Z,95152.7
2023-03-19T00:12:31.834Z,95152.6
2023-03-19T00:13:34.054Z,95156.8
2023-03-19T00:14:36.296Z,95156.9
2023-03-19T00:15:38.547Z,95155.3
2023-03-19T00:16:41.324Z,95154
2023-03-19T00:17:44.376Z,95149.9
2023-03-19T00:18:46.907Z,95148.2
2023-03-19T00:19:48.890Z,95149.8
2023-03-19T00:20:51.382Z,95154.6
2023-03-19T00:21:53.894Z,95152.6
2023-03-19T00:22:56.431Z,95154.2
2023-03-19T00:23:58.951Z,95148.7
2023-03-19T00:25:01.540Z,95149.8
2023-03-19T00:26:03.936Z,95151.8
2023-03-19T00:27:06.417Z,95149.8
2023-03-19T00:28:08.705Z,95154.1
2023-03-19T00:29:10.974Z,95147.4
2023-03-19T00:30:13.521Z,95152.5
2023-03-19T00:31:15.740Z,95152.7
2023-03-19T00:32:18.052Z,95153.3
2023-03-19T00:33:20.555Z,95156.3
2023-03-19T00:34:22.504Z,95156.3
2023-03-19T00:35:25.096Z,95156.5
2023-03-19T00:36:27.375Z,95156.1
2023-03-19T00:37:29.455Z,95159.6
2023-03-19T00:38:31.986Z,95160.4
2023-03-19T00:39:34.503Z,95157.2
2023-03-19T00:40:36.809Z,95161.4
2023-03-19T00:41:39.322Z,95163.3
2023-03-19T00:42:41.276Z,95166.3
2023-03-19T00:43:43.041Z,95163.2
2023-03-19T00:44:45.642Z,95165.2
2023-03-19T00:45:47.876Z,95166.7
2023-03-19T00:46:49.924Z,95166.2
2023-03-19T00:47:52.171Z,95169
2023-03-19T00:48:54.701Z,95170.5
2023-03-19T00:49:57.345Z,95170.3
2023-03-19T00:50:59.584Z,95171
2023-03-19T00:52:01.812Z,95170.7
2023-03-19T00:53:04.321Z,95170.2
2023-03-19T00:54:06.555Z,95174.5
2023-03-19T00:55:08.802Z,95169.8
2023-03-19T00:56:11.386Z,95170.1
2023-03-19T00:57:13.913Z,95169
2023-03-19T00:58:16.436Z,95168.5
2023-03-19T00:59:18.686Z,95167.1
2023-03-19T01:00:22.219Z,95159.1
2023-03-19T01:01:24.907Z,95164.4
2023-03-19T01:02:27.600Z,95161.7
2023-03-19T01:03:29.838Z,95156
2023-03-19T01:04:32.274Z,95154.2
2023-03-19T01:05:35.780Z,95154.5
2023-03-19T01:06:38.384Z,95154.3
2023-03-19T01:07:40.075Z,95159.9
2023-03-19T01:08:42.058Z,95159.8
2023-03-19T01:09:44.577Z,95158
2023-03-19T01:10:46.785Z,95163.5
2023-03-19T01:11:49.576Z,95160.5
2023-03-19T01:12:52.110Z,95166.6
2023-03-19T01:13:54.319Z,95170.6
2023-03-19T01:14:56.833Z,95169
2023-03-19T01:15:59.061Z,95177.5
2023-03-19T01:17:01.412Z,95179
2023-03-19T01:18:03.706Z,95180.3
2023-03-19T01:19:06.413Z,95181.5
2023-03-19T01:20:08.622Z,95181.5
2023-03-19T01:21:11.134Z,95178.9
2023-03-19T01:22:13.390Z,95181.8
2023-03-19T01:23:15.601Z,95176.3
2023-03-19T01:24:18.113Z,95187.4
2023-03-19T01:25:20.646Z,95180.6
2023-03-19T01:26:23.147Z,95183.3
2023-03-19T01:27:25.723Z,95191
2023-03-19T01:28:27.953Z,95188.1
2023-03-19T01:29:30.514Z,95185.8
2023-03-19T01:30:34.261Z,95180.2
2023-03-19T01:31:37.357Z,95184.7
2023-03-19T01:32:40.116Z,95186.5
2023-03-19T01:33:42.663Z,95185.5
2023-03-19T01:34:44.604Z,95183
2023-03-19T01:35:47.223Z,95181.8
2023-03-19T01:36:49.309Z,95176.6
2023-03-19T01:37:51.839Z,95178.1
2023-03-19T01:38:54.334Z,95173.2
2023-03-19T01:39:56.820Z,95175.5
2023-03-19T01:40:59.259Z,95172.1
2023-03-19T01:42:01.746Z,95167.8
2023-03-19T01:43:04.343Z,95168
2023-03-19T01:44:06.881Z,95172.1
2023-03-19T01:45:09.087Z,95168.2
2023-03-19T01:46:11.540Z,95170.6
2023-03-19T01:47:14.092Z,95174.9
2023-03-19T01:48:16.340Z,95175.3
2023-03-19T01:49:18.560Z,95179.5
2023-03-19T01:50:20.801Z,95176.5
2023-03-19T01:51:23.027Z,95179.2
2023-03-19T01:52:25.567Z,95178.6
2023-03-19T01:53:28.112Z,95178.8
2023-03-19T01:54:30.324Z,95181.8
2023-03-19T01:55:32.843Z,95177.1
2023-03-19T01:56:35.380Z,95180
2023-03-19T01:57:37.626Z,95182
2023-03-19T01:58:40.256Z,95179.7
2023-03-19T01:59:42.491Z,95175
2023-03-19T02:00:44.701Z,95179.1
2023-03-19T02:01:47.155Z,95177.9
2023-03-19T02:02:49.792Z,95173.7
2023-03-19T02:03:52.073Z,95178
2023-03-19T02:04:55.153Z,95178.5
2023-03-19T02:05:57.539Z,95179
2023-03-19T02:06:59.241Z,95181.4
2023-03-19T02:08:01.728Z,95184.9
2023-03-19T02:09:04.241Z,95184.9
2023-03-19T02:10:06.764Z,95187.9
2023-03-19T02:11:09.001Z,95191.3
2023-03-19T02:12:11.501Z,95189.6
2023-03-19T02:13:14.115Z,95185.5
2023-03-19T02:14:16.498Z,95186.8
2023-03-19T02:15:19.003Z,95188.7
2023-03-19T02:16:21.477Z,95183.9
2023-03-19T02:17:23.796Z,95183.1
2023-03-19T02:18:26.009Z,95186.1
2023-03-19T02:19:28.517Z,95179.6
2023-03-19T02:20:30.800Z,95184.8
2023-03-19T02:21:33.001Z,95176.8
2023-03-19T02:22:34.946Z,95177.5
2023-03-19T02:23:37.149Z,95178
2023-03-19T02:24:39.689Z,95174.2
2023-03-19T02:25:41.976Z,95172.3
2023-03-19T02:26:44.510Z,95170.5
2023-03-19T02:27:47.074Z,95171.5
2023-03-19T02:28:49.353Z,95172.9
2023-03-19T02:29:51.645Z,95175.7
2023-03-19T02:30:54.174Z,95174.2
2023-03-19T02:31:56.102Z,95177.4
2023-03-19T02:32:58.858Z,95176
2023-03-19T02:34:00.641Z,95170
2023-03-19T02:35:02.893Z,95171.6
2023-03-19T02:36:05.578Z,95172.7
2023-03-19T02:37:07.885Z,95174.4
2023-03-19T02:38:10.358Z,95177.6
2023-03-19T02:39:12.879Z,95176.5
2023-03-19T02:40:15.403Z,95181.8
2023-03-19T02:41:17.680Z,95176.5
2023-03-19T02:42:20.179Z,95181.8
2023-03-19T02:43:22.688Z,95186.5
2023-03-19T02:44:25.179Z,95181.5
2023-03-19T02:45:27.751Z,95182.1
2023-03-19T02:46:30.236Z,95182.1
2023-03-19T02:47:32.601Z,95179.7
2023-03-19T02:48:35.107Z,95180.7
2023-03-19T02:49:37.610Z,95184.4
2023-03-19T02:50:39.547Z,95183.3
2023-03-19T02:51:41.796Z,95178.6
2023-03-19T02:52:44.023Z,95184.1
2023-03-19T02:53:46.284Z,95183.4
2023-03-19T02:54:48.801Z,95189.8
2023-03-19T02:55:51.349Z,95191.5
2023-03-19T02:56:53.869Z,95190.4
2023-03-19T02:57:56.355Z,95190.3
2023-03-19T02:58:58.627Z,95196.6
2023-03-19T03:00:01.256Z,95193.4
2023-03-19T03:01:04.133Z,95196.8
2023-03-19T03:02:06.702Z,95194.5
2023-03-19T03:03:09.434Z,95195.3
2023-03-19T03:04:11.645Z,95198.8
2023-03-19T03:05:13.898Z,95197.9
2023-03-19T03:06:15.858Z,95201.5
2023-03-19T03:07:18.093Z,95203.9
2023-03-19T03:08:20.630Z,95206.9
2023-03-19T03:09:22.588Z,95207
2023-03-19T03:10:24.805Z,95210
2023-03-19T03:11:27.341Z,95210.9
2023-03-19T03:12:30.121Z,95205
2023-03-19T03:13:32.615Z,95201.9
2023-03-19T03:14:34.815Z,95202.3
2023-03-19T03:15:37.063Z,95201.3
2023-03-19T03:16:39.818Z,95201.3
2023-03-19T03:17:42.443Z,95212.8
2023-03-19T03:18:44.671Z,95211.9
2023-03-19T03:19:47.173Z,95214.1
2023-03-19T03:20:49.530Z,95214.1
2023-03-19T03:21:52.113Z,95209.7
2023-03-19T03:22:54.619Z,95213.4
2023-03-19T03:23:56.882Z,95212.8
2023-03-19T03:24:59.081Z,95210.5
2023-03-19T03:26:01.402Z,95211.7
2023-03-19T03:27:03.676Z,95210.7
2023-03-19T03:28:05.897Z,95209.6
2023-03-19T03:29:08.148Z,95204.3
2023-03-19T03:30:10.092Z,95206.6
2023-03-19T03:31:12.921Z,95207.2
2023-03-19T03:32:15.354Z,95208.6
2023-03-19T03:33:17.873Z,95204.3
2023-03-19T03:34:19.818Z,95204.5
2023-03-19T03:35:22.228Z,95208.6
2023-03-19T03:36:24.889Z,95210.8
2023-03-19T03:37:27.094Z,95209.3
2023-03-19T03:38:29.293Z,95210.9
2023-03-19T03:39:31.556Z,95215
2023-03-19T03:40:35.370Z,95211.1
2023-03-19T03:41:38.643Z,95220.2
2023-03-19T03:42:41.156Z,95220.4
2023-03-19T03:43:43.642Z,95216.8
2023-03-19T03:44:46.177Z,95221.4
2023-03-19T03:45:48.938Z,95225.5
2023-03-19T03:46:51.538Z,95221.2
2023-03-19T03:47:54.105Z,95226.7
2023-03-19T03:48:56.369Z,95222
2023-03-19T03:49:58.870Z,95223.1
2023-03-19T03:51:01.367Z,95222.3
2023-03-19T03:52:03.880Z,95219.7
2023-03-19T03:53:06.074Z,95224.4
2023-03-19T03:54:08.584Z,95220.5
2023-03-19T03:55:11.145Z,95224.9
2023-03-19T03:56:13.712Z,95223.5
2023-03-19T03:57:16.229Z,95223.9
2023-03-19T03:58:18.527Z,95229.3
2023-03-19T03:59:20.786Z,95230.9
2023-03-19T04:00:23.042Z,95233
2023-03-19T04:01:25.254Z,95235
2023-03-19T04:02:27.720Z,95240.1
2023-03-19T04:03:30.501Z,95235.6
2023-03-19T04:04:32.851Z,95238
2023-03-19T04:05:34.800Z,95238.3
2023-03-19T04:06:37.008Z,95234
2023-03-19T04:07:39.699Z,95233
2023-03-19T04:08:42.245Z,95230.9
2023-03-19T04:09:44.750Z,95225.7
2023-03-19T04:10:47.270Z,95225.1
2023-03-19T04:12:54.779Z,95228.1
2023-03-19T04:13:57.292Z,95224.5
2023-03-19T04:14:59.862Z,95229.8
2023-03-19T04:16:02.401Z,95230.2
2023-03-19T04:17:04.322Z,95234.1
2023-03-19T04:18:06.855Z,95230.5
2023-03-19T04:19:09.432Z,95235.6
2023-03-19T04:20:11.683Z,95234.9
2023-03-19T04:21:14.202Z,95236.7
2023-03-19T04:22:16.697Z,95232.8
2023-03-19T04:23:18.978Z,95235.5
2023-03-19T04:24:21.454Z,95243.6
2023-03-19T04:25:23.956Z,95243.1
2023-03-19T04:26:26.181Z,95243
2023-03-19T04:27:28.438Z,95255.2
2023-03-19T04:28:30.929Z,95252.4
2023-03-19T04:29:32.937Z,95250.6
2023-03-19T04:30:38.347Z,95251.1
2023-03-19T04:31:41.294Z,95252.6
2023-03-19T04:32:43.876Z,95251.3
2023-03-19T04:33:46.626Z,95246.7
2023-03-19T04:34:49.219Z,95255
2023-03-19T04:35:51.994Z,95252.2
2023-03-19T04:36:54.272Z,95253
2023-03-19T04:37:56.225Z,95256.3
2023-03-19T04:38:58.717Z,95256.2
2023-03-19T04:40:00.941Z,95256.9
2023-03-19T04:41:03.506Z,95258.9
2023-03-19T04:42:06.049Z,95259.5
2023-03-19T04:43:08.531Z,95253.9
2023-03-19T04:44:11.041Z,95254
2023-03-19T04:45:13.588Z,95251.6
2023-03-19T04:46:16.076Z,95253.7
2023-03-19T04:47:18.724Z,95257.5
2023-03-19T04:48:21.274Z,95256
2023-03-19T04:49:23.744Z,95250.6
2023-03-19T04:50:26.404Z,95250.7
2023-03-19T04:51:28.368Z,95255.5
2023-03-19T04:52:30.609Z,95265.4
2023-03-19T04:53:32.876Z,95261.5
2023-03-19T04:54:35.363Z,95259.3
2023-03-19T04:55:37.594Z,95261.5
2023-03-19T04:56:40.096Z,95262.4
2023-03-19T04:57:42.333Z,95262.5
2023-03-19T04:58:44.582Z,95263
2023-03-19T04:59:46.784Z,95264.3
2023-03-19T05:00:49.379Z,95265.5
2023-03-19T05:01:51.989Z,95265.6
2023-03-19T05:02:54.203Z,95262
2023-03-19T05:03:56.888Z,95265.5
2023-03-19T05:04:59.422Z,95266.2
2023-03-19T05:06:02.013Z,95265.1
2023-03-19T05:07:04.242Z,95270.7
2023-03-19T05:08:06.792Z,95272.8
2023-03-19T05:09:09.013Z,95280
2023-03-19T05:10:11.323Z,95281.4
2023-03-19T05:11:13.534Z,95281.4
2023-03-19T05:12:15.283Z,95281
2023-03-19T05:13:18.437Z,95280.5
2023-03-19T05:14:23.762Z,95277.1
2023-03-19T05:15:25.958Z,95285
2023-03-19T05:16:28.475Z,95286.3
2023-03-19T05:17:30.687Z,95284.1
2023-03-19T05:18:33.189Z,95286.2
2023-03-19T05:19:35.708Z,95282.1
2023-03-19T05:20:38.021Z,95289.1
2023-03-19T05:21:40.610Z,95290.1
2023-03-19T05:22:43.130Z,95286.7
2023-03-19T05:23:45.369Z,95290.9
2023-03-19T05:24:47.592Z,95285
2023-03-19T05:25:50.152Z,95290
2023-03-19T05:26:52.407Z,95295.8
2023-03-19T05:27:54.633Z,95295
2023-03-19T05:28:57.217Z,95301.3
2023-03-19T05:29:59.750Z,95300.7
2023-03-19T05:31:01.901Z,95304
2023-03-19T05:32:04.348Z,95303.5
2023-03-19T05:33:06.892Z,95304.7
2023-03-19T05:34:09.469Z,95306.3
2023-03-19T05:35:11.705Z,95308.8
2023-03-19T05:36:13.946Z,95304.5
2023-03-19T05:37:16.539Z,95305
2023-03-19T05:38:18.786Z,95308.9
2023-03-19T05:39:21.038Z,95309.7
2023-03-19T05:40:23.545Z,95311.3
2023-03-19T05:41:26.052Z,95308.9
2023-03-19T05:42:28.302Z,95311.5
2023-03-19T05:43:30.524Z,95318.2
2023-03-19T05:44:33.013Z,95317.3
2023-03-19T05:45:35.258Z,95317.3
2023-03-19T05:46:37.531Z,95320.8
2023-03-19T05:47:39.946Z,95325.1
2023-03-19T05:48:42.450Z,95321.9
2023-03-19T05:49:44.713Z,95324.6
2023-03-19T05:50:46.644Z,95330.6
2023-03-19T05:51:49.213Z,95330.6
2023-03-19T05:52:51.666Z,95335.6
2023-03-19T05:53:53.924Z,95339.3
2023-03-19T05:54:56.418Z,95341.8
2023-03-19T05:55:58.649Z,95344.9
2023-03-19T05:57:00.690Z,95347.9
2023-03-19T05:58:03.747Z,95350
2023-03-19T05:59:06.009Z,95352
2023-03-19T06:00:08.511Z,95358.5
2023-03-19T06:01:11.107Z,95355.2
2023-03-19T06:02:13.346Z,95359.9
2023-03-19T06:03:15.886Z,95353.3
2023-03-19T06:04:18.093Z,95359.8
2023-03-19T06:05:20.472Z,95362.4
2023-03-19T06:06:22.679Z,95360.2
2023-03-19T06:07:25.199Z,95366.5
2023-03-19T06:08:27.715Z,95364.5
2023-03-19T06:09:29.968Z,95365.5
2023-03-19T06:10:32.477Z,95366.2
2023-03-19T06:11:34.928Z,95367.5
2023-03-19T06:12:37.148Z,95366
2023-03-19T06:13:39.381Z,95368.1
2023-03-19T06:14:41.921Z,95371.5
2023-03-19T06:15:44.642Z,95374.3
2023-03-19T06:16:47.225Z,95376.3
2023-03-19T06:17:49.463Z,95380.2
2023-03-19T06:18:52.077Z,95382.8
2023-03-19T06:19:54.598Z,95382.5
2023-03-19T06:20:57.122Z,95383.6
2023-03-19T06:21:59.628Z,95380.3
2023-03-19T06:23:02.260Z,95385.9
2023-03-19T06:24:04.969Z,95387.8
2023-03-19T06:25:07.012Z,95386
2023-03-19T06:26:09.523Z,95387.5
2023-03-19T06:27:11.749Z,95393
2023-03-19T06:28:14.271Z,95394.7
2023-03-19T06:29:16.470Z,95394.3
2023-03-19T06:30:18.994Z,95395.9
2023-03-19T06:31:21.759Z,95400.9
2023-03-19T06:32:24.045Z,95401.9
2023-03-19T06:33:26.273Z,95405.1
2023-03-19T06:34:28.838Z,95406.4
2023-03-19T06:35:31.515Z,95409.2
2023-03-19T06:36:34.118Z,95411
2023-03-19T06:37:36.359Z,95410.5
2023-03-19T06:38:38.862Z,95411.4
2023-03-19T06:39:41.481Z,95416.1
2023-03-19T06:40:43.758Z,95415.6
2023-03-19T06:41:46.392Z,95421.3
2023-03-19T06:42:48.915Z,95419
2023-03-19T06:43:51.472Z,95418.6
2023-03-19T06:44:55.277Z,95417.6
2023-03-19T06:45:58.035Z,95420.3
2023-03-19T06:47:00.336Z,95418.7
2023-03-19T06:48:02.877Z,95415.8
2023-03-19T06:49:05.409Z,95416.7
2023-03-19T06:50:08.014Z,95415.6
2023-03-19T06:51:10.525Z,95416.5
2023-03-19T06:52:12.789Z,95417.4
2023-03-19T06:53:15.049Z,95418.3
2023-03-19T06:54:17.289Z,95420.5
2023-03-19T06:55:19.576Z,95418.2
2023-03-19T06:56:22.118Z,95419.2
2023-03-19T06:57:24.352Z,95420.6
2023-03-19T06:58:26.583Z,95419.3
2023-03-19T06:59:28.844Z,95421.1
2023-03-19T07:00:31.128Z,95420.6
2023-03-19T07:01:33.229Z,95422.2
2023-03-19T07:02:35.755Z,95422.3
2023-03-19T07:03:38.253Z,95427.4
2023-03-19T07:04:40.208Z,95428.9
2023-03-19T07:05:42.734Z,95427.5
2023-03-19T07:06:44.959Z,95427.1
2023-03-19T07:07:46.625Z,95428.4
2023-03-19T07:08:49.182Z,95432.2
2023-03-19T07:09:51.685Z,95431.1
2023-03-19T07:10:54.297Z,95435.8
2023-03-19T07:11:56.555Z,95441.3
2023-03-19T07:12:58.796Z,95441.8
2023-03-19T07:14:01.292Z,95447.5
2023-03-19T07:15:03.736Z,95446.6
2023-03-19T07:16:06.219Z,95451.2
2023-03-19T07:18:13.804Z,95455.1
2023-03-19T07:19:16.796Z,95458.3
2023-03-19T07:20:19.313Z,95460.3
2023-03-19T07:21:21.863Z,95460.1
2023-03-19T07:22:24.076Z,95462.4
2023-03-19T07:23:26.309Z,95472
2023-03-19T07:24:28.553Z,95472.2
2023-03-19T07:25:30.782Z,95468.5
2023-03-19T07:26:33.381Z,95474.7
2023-03-19T07:27:35.624Z,95469.8
2023-03-19T07:28:37.872Z,95479.7
2023-03-19T07:29:40.399Z,95479.6
2023-03-19T07:30:42.607Z,95475
2023-03-19T07:31:45.134Z,95479.4
2023-03-19T07:32:47.818Z,95478.8
2023-03-19T07:33:49.946Z,95478.8
2023-03-19T07:34:51.886Z,95477.1
2023-03-19T07:35:54.042Z,95476.5
2023-03-19T07:36:56.352Z,95484.8
2023-03-19T07:37:58.440Z,95483.5
2023-03-19T07:39:00.983Z,95482.5
2023-03-19T07:40:03.518Z,95488.7
2023-03-19T07:41:05.751Z,95489.1
2023-03-19T07:42:08.373Z,95487.7
2023-03-19T07:43:10.361Z,95492.8
2023-03-19T07:44:12.589Z,95498.4
2023-03-19T07:45:14.869Z,95499.3
2023-03-19T07:46:17.384Z,95503.8
2023-03-19T07:48:25.013Z,95501.7
2023-03-19T07:49:27.514Z,95500.3
2023-03-19T07:50:30.084Z,95503.5
2023-03-19T07:51:32.692Z,95503.7
2023-03-19T07:52:35.265Z,95500.2
2023-03-19T07:53:37.865Z,95502.8
2023-03-19T07:54:40.357Z,95499.3
2023-03-19T07:55:42.871Z,95500.4
2023-03-19T07:56:45.139Z,95501.1
2023-03-19T07:57:47.618Z,95503.2
2023-03-19T07:58:50.152Z,95504.3
2023-03-19T07:59:52.091Z,95503.9
2023-03-19T08:00:54.067Z,95503.7
2023-03-19T08:01:56.539Z,95496.3
2023-03-19T08:02:59.177Z,95502.6
2023-03-19T08:04:01.670Z,95504.1
2023-03-19T08:05:04.460Z,95504.8
2023-03-19T08:06:06.398Z,95498.7
2023-03-19T08:07:08.901Z,95501.6
2023-03-19T08:08:11.184Z,95500.7
2023-03-19T08:09:13.455Z,95496.9
2023-03-19T08:10:15.970Z,95495.7
2023-03-19T08:11:18.656Z,95496
2023-03-19T08:12:21.205Z,95500.1
2023-03-19T08:13:23.538Z,95497.3
2023-03-19T08:14:25.838Z,95498.3
2023-03-19T08:15:28.364Z,95500.1
2023-03-19T08:16:30.449Z,95499.1
2023-03-19T08:17:32.641Z,95502
2023-03-19T08:18:35.142Z,95501.9
2023-03-19T08:19:37.401Z,95501.8
2023-03-19T08:20:39.921Z,95501
2023-03-19T08:21:42.442Z,95503.5
2023-03-19T08:22:45.026Z,95503.4
2023-03-19T08:23:47.714Z,95505.5
2023-03-19T08:24:49.967Z,95501.8
2023-03-19T08:25:52.544Z,95502.5
2023-03-19T08:26:55.069Z,95502.4
2023-03-19T08:27:57.316Z,95501.1
2023-03-19T08:28:59.626Z,95499.9
2023-03-19T08:30:02.349Z,95500.1
2023-03-19T08:31:05.203Z,95497.7
2023-03-19T08:32:07.485Z,95495.7
2023-03-19T08:33:09.874Z,95494.1
2023-03-19T08:34:12.496Z,95494.4
2023-03-19T08:35:15.054Z,95492.7
2023-03-19T08:36:17.028Z,95498.5
2023-03-19T08:37:19.563Z,95495.9
2023-03-19T08:38:21.793Z,95501.4
2023-03-19T08:39:24.345Z,95505.3
2023-03-19T08:40:26.999Z,95504.8
2023-03-19T08:41:29.673Z,95512.6
2023-03-19T08:42:31.628Z,95510.1
2023-03-19T08:43:33.313Z,95511.5
2023-03-19T08:44:35.598Z,95512
2023-03-19T08:45:38.128Z,95514.9
2023-03-19T08:46:41.077Z,95512.8
2023-03-19T08:47:43.506Z,95514.2
2023-03-19T08:48:45.751Z,95513.2
2023-03-19T08:49:48.573Z,95514.3
2023-03-19T08:50:51.076Z,95512.6
2023-03-19T08:51:53.301Z,95515.7
2023-03-19T08:52:55.526Z,95514.5
2023-03-19T08:53:58.120Z,95516.6
2023-03-19T08:55:00.138Z,95517.3
2023-03-19T08:56:02.391Z,95517
2023-03-19T08:57:04.842Z,95521.3
2023-03-19T08:58:07.375Z,95518.2
2023-03-19T08:59:09.609Z,95517
2023-03-19T09:00:12.220Z,95516.1
2023-03-19T09:01:14.763Z,95518.9
2023-03-19T09:02:17.043Z,95519
2023-03-19T09:03:18.733Z,95524.1
2023-03-19T09:04:21.409Z,95521.2
2023-03-19T09:05:23.700Z,95522.8
2023-03-19T09:06:26.204Z,95523.7
2023-03-19T09:07:28.421Z,95524.4
2023-03-19T09:08:30.984Z,95531
2023-03-19T09:09:33.493Z,95533.2
2023-03-19T09:10:37.197Z,95533.5
2023-03-19T09:11:39.986Z,95534.3
2023-03-19T09:12:42.627Z,95535.3
2023-03-19T09:13:44.578Z,95537.7
2023-03-19T09:14:46.846Z,95536.9
2023-03-19T09:15:49.651Z,95539
2023-03-19T09:16:52.316Z,95536.6
2023-03-19T09:17:54.578Z,95538.1
2023-03-19T09:20:02.131Z,95539.3
2023-03-19T09:21:04.698Z,95543.5
2023-03-19T09:22:06.950Z,95548
2023-03-19T09:23:09.170Z,95548.1
2023-03-19T09:24:11.137Z,95549.1
2023-03-19T09:25:13.362Z,95547.5
2023-03-19T09:26:15.634Z,95548.9
2023-03-19T09:27:18.142Z,95547.2
2023-03-19T09:28:20.647Z,95548.5
2023-03-19T09:29:22.872Z,95552.3
2023-03-19T09:30:24.888Z,95550.2
2023-03-19T09:32:32.819Z,95552.6
2023-03-19T09:33:35.160Z,95550.2
2023-03-19T09:34:37.657Z,95555
2023-03-19T09:35:40.011Z,95557.9
2023-03-19T09:36:42.584Z,95555.5
2023-03-19T09:37:45.098Z,95557.3
2023-03-19T09:38:47.356Z,95557.1
2023-03-19T09:39:49.629Z,95561.4
2023-03-19T09:40:51.884Z,95561.5
2023-03-19T09:41:54.113Z,95559.6
2023-03-19T09:42:56.077Z,95559.3
2023-03-19T09:43:58.338Z,95562
2023-03-19T09:45:00.897Z,95563.6
2023-03-19T09:46:03.134Z,95564.4
2023-03-19T09:47:05.976Z,95567.7
2023-03-19T09:48:08.713Z,95568.7
2023-03-19T09:49:10.958Z,95570.5
2023-03-19T09:50:13.177Z,95570.8
2023-03-19T09:51:15.694Z,95569.8
2023-03-19T09:52:18.195Z,95570.5
2023-03-19T09:53:20.149Z,95571.7
2023-03-19T09:54:22.727Z,95569.3
2023-03-19T09:55:25.075Z,95569.3
2023-03-19T09:56:27.302Z,95571.4
2023-03-19T09:57:29.900Z,95567.7
2023-03-19T09:58:32.456Z,95574.2
2023-03-19T09:59:34.967Z,95566.4
2023-03-19T10:00:37.691Z,95569
2023-03-19T10:01:40.591Z,95566.9
2023-03-19T10:02:42.998Z,95566.5
2023-03-19T10:03:45.898Z,95565.8
2023-03-19T10:04:48.524Z,95564.3
2023-03-19T10:05:51.071Z,95560.3
2023-03-19T10:06:53.581Z,95563.4
2023-03-19T10:07:56.119Z,95558.5
2023-03-19T10:08:58.672Z,95559.1
2023-03-19T10:10:00.652Z,95558.6
2023-03-19T10:11:03.212Z,95554.5
2023-03-19T10:12:05.765Z,95554.3
2023-03-19T10:13:08.297Z,95553.7
2023-03-19T10:14:11.338Z,95555
2023-03-19T10:15:18.618Z,95550.4
2023-03-19T10:16:21.432Z,95553.4
2023-03-19T10:17:23.540Z,95552.5
2023-03-19T10:18:25.462Z,95549.7
2023-03-19T10:19:28.076Z,95549.1
2023-03-19T10:20:30.654Z,95549.4
2023-03-19T10:21:32.874Z,95550.4
2023-03-19T10:22:35.110Z,95549
2023-03-19T10:23:37.617Z,95551.4
2023-03-19T10:24:39.845Z,95550.8
2023-03-19T10:25:43.005Z,95548.1
2023-03-19T10:26:45.535Z,95550.1
2023-03-19T10:27:48.092Z,95550.9
2023-03-19T10:28:50.642Z,95547.4
2023-03-19T10:29:52.907Z,95554.6
2023-03-19T10:32:02.152Z,95551.8
2023-03-19T10:33:05.156Z,95549.7
2023-03-19T10:34:07.182Z,95546.6
2023-03-19T10:35:09.789Z,95551.9
2023-03-19T10:37:17.739Z,95550.2
2023-03-19T10:38:20.274Z,95551.6
2023-03-19T10:39:22.503Z,95547.3
2023-03-19T10:40:24.755Z,95549.2
2023-03-19T10:41:27.294Z,95553
2023-03-19T10:42:33.659Z,95556.1
2023-03-19T10:43:36.210Z,95559.3
2023-03-19T10:44:38.466Z,95554
2023-03-19T10:45:42.730Z,95557
2023-03-19T10:46:45.078Z,95556.7
2023-03-19T10:47:47.625Z,95557.5
2023-03-19T10:48:50.142Z,95550.6
2023-03-19T10:49:52.667Z,95547.2
2023-03-19T10:50:54.964Z,95548
2023-03-19T10:51:57.564Z,95548.7
2023-03-19T10:53:00.127Z,95543
2023-03-19T10:54:02.095Z,95542
2023-03-19T10:55:04.336Z,95539.1
2023-03-19T10:56:06.594Z,95538.8
2023-03-19T10:57:08.819Z,95532.8
2023-03-19T10:58:10.774Z,95535.5
2023-03-19T10:59:12.996Z,95533.5
2023-03-19T11:00:15.289Z,95532.9
2023-03-19T11:01:18.104Z,95530.2
2023-03-19T11:02:20.228Z,95530.2
2023-03-19T11:03:22.742Z,95530.3
2023-03-19T11:04:25.254Z,95525.8
2023-03-19T11:05:28.842Z,95527.4
2023-03-19T11:06:34.175Z,95521.6
2023-03-19T11:07:36.747Z,95521.3
2023-03-19T11:08:39.067Z,95526.6
2023-03-19T11:09:41.292Z,95526.4
2023-03-19T11:10:43.528Z,95522.2
2023-03-19T11:11:46.506Z,95518.5
2023-03-19T11:12:53.988Z,95516.1
2023-03-19T11:13:56.512Z,95515.1
2023-03-19T11:14:59.046Z,95520.9
2023-03-19T11:16:01.066Z,95520.8
2023-03-19T11:18:08.605Z,95518.8
2023-03-19T11:19:11.147Z,95516.8
2023-03-19T11:20:13.696Z,95516.1
2023-03-19T11:21:16.222Z,95514.6
2023-03-19T11:23:23.797Z,95515.4
2023-03-19T11:24:26.339Z,95517
2023-03-19T11:25:28.861Z,95520.8
2023-03-19T11:26:31.391Z,95527.4
2023-03-19T11:27:33.913Z,95519.8
2023-03-19T11:28:36.452Z,95519.3
2023-03-19T11:29:38.749Z,95515.1
2023-03-19T11:30:41.266Z,95515
2023-03-19T11:31:43.865Z,95512.2
2023-03-19T11:32:46.812Z,95516.6
2023-03-19T11:33:49.580Z,95512.9
2023-03-19T11:34:54.939Z,95511.3
2023-03-19T11:35:57.442Z,95501.8
2023-03-19T11:37:00.032Z,95505.4
2023-03-19T11:38:02.051Z,95502.3
2023-03-19T11:39:04.670Z,95506.5
2023-03-19T11:40:07.238Z,95504.7
2023-03-19T11:41:09.781Z,95505
2023-03-19T11:42:12.324Z,95505.8
2023-03-19T11:43:14.714Z,95504
2023-03-19T11:44:17.258Z,95500.1
2023-03-19T11:45:19.536Z,95494.3
2023-03-19T11:46:22.234Z,95498.6
2023-03-19T11:48:29.814Z,95497
2023-03-19T11:49:32.353Z,95496.4
2023-03-19T11:50:34.089Z,95493.8
2023-03-19T11:51:36.630Z,95490.4
2023-03-19T11:52:38.881Z,95491.3
2023-03-19T11:53:41.140Z,95492.8
2023-03-19T11:54:43.807Z,95493
2023-03-19T11:55:45.525Z,95490.8
2023-03-19T11:56:48.062Z,95492.5
2023-03-19T11:57:50.590Z,95494.8
2023-03-19T11:58:52.848Z,95493
2023-03-19T11:59:55.143Z,95492.1
2023-03-19T12:00:57.390Z,95489.7
2023-03-19T12:01:59.673Z,95484.7
2023-03-19T12:03:02.217Z,95488
2023-03-19T12:04:04.726Z,95483.6
2023-03-19T12:05:06.980Z,95481.7
2023-03-19T12:06:09.234Z,95485
2023-03-19T12:07:11.471Z,95480.6
2023-03-19T12:08:13.436Z,95478.7
2023-03-19T12:09:15.703Z,95476.9
2023-03-19T12:10:18.387Z,95478.2
2023-03-19T12:11:20.953Z,95471.8
2023-03-19T12:13:30.583Z,95470.5
2023-03-19T12:14:33.098Z,95470.3
2023-03-19T12:15:37.017Z,95470.1
2023-03-19T12:17:44.011Z,95466.3
2023-03-19T12:18:46.300Z,95467.2
2023-03-19T12:19:48.868Z,95460.1
2023-03-19T12:20:50.610Z,95464.1
2023-03-19T12:21:52.858Z,95462
2023-03-19T12:22:55.081Z,95460.7
2023-03-19T12:23:57.605Z,95461.7
2023-03-19T12:24:59.531Z,95461
2023-03-19T12:26:02.152Z,95462
2023-03-19T12:27:04.411Z,95464.7
2023-03-19T12:28:06.924Z,95460.7
2023-03-19T12:29:09.446Z,95463.2
2023-03-19T12:30:11.681Z,95458.1
2023-03-19T12:31:14.099Z,95459
2023-03-19T12:32:16.660Z,95453.8
2023-03-19T12:33:19.160Z,95458.2
2023-03-19T12:34:21.680Z,95452.1
2023-03-19T12:35:24.160Z,95451.2
2023-03-19T12:36:26.392Z,95447.5
2023-03-19T12:37:28.813Z,95453.7
2023-03-19T12:38:31.343Z,95447.9
2023-03-19T12:39:33.602Z,95447.2
2023-03-19T12:40:36.123Z,95446.5
2023-03-19T12:41:38.694Z,95449.4
2023-03-19T12:42:41.249Z,95449.9
2023-03-19T12:43:43.456Z,95446.9
2023-03-19T12:44:45.947Z,95446
2023-03-19T12:45:48.454Z,95446.6
2023-03-19T12:46:51.297Z,95441.2
2023-03-19T12:47:53.982Z,95432.5
2023-03-19T12:48:56.480Z,95434.5
2023-03-19T12:49:59.015Z,95435.3
2023-03-19T12:51:01.257Z,95430.1
2023-03-19T12:52:03.478Z,95434.9
2023-03-19T12:53:05.418Z,95433.6
2023-03-19T12:54:07.934Z,95432.8
2023-03-19T12:55:10.436Z,95428.7
2023-03-19T12:56:12.646Z,95435.4